Time;durP1;ratioP1;P1;durP2;ratioP2;P2;SDS_P1;SDS_P2;PMS_P1;PMS_P2;Temp;Humidity;BMP_temperature;BMP_pressure;BME280_temperature;BME280_humidity;BME280_pressure;Samples;Min_cycle;Max_cycle;Signal;HPM_P1;HPM_P2
2021/11/30 00:01:57;;;;;;;12.27;8.27;;;4.90;99.90;;;;;;5054586;28;20043;-67
2021/11/30 00:04:29;;;;;;;11.07;6.88;;;5.00;99.90;;;;;;5030314;28;20059;-67
2021/11/30 00:06:57;;;;;;;13.05;5.22;;;5.00;99.90;;;;;;5055666;28;20484;-67
2021/11/30 00:12:10;;;;;;;7.60;4.60;;;4.90;99.90;;;;;;5051143;28;20049;-67
2021/11/30 00:14:37;;;;;;;7.70;5.40;;;4.90;99.90;;;;;;5050305;28;20049;-67
2021/11/30 00:17:23;;;;;;;9.60;5.82;;;4.90;99.90;;;;;;5052738;28;20413;-67
2021/11/30 00:19:50;;;;;;;6.72;4.88;;;5.00;99.90;;;;;;5055808;28;20040;-67
2021/11/30 00:22:20;;;;;;;8.90;6.30;;;5.00;99.90;;;;;;5055280;28;20060;-67
2021/11/30 00:24:47;;;;;;;;;;;5.10;99.90;;;;;;5050974;28;20369;-67
2021/11/30 00:27:15;;;;;;;8.07;4.95;;;5.10;99.90;;;;;;5051088;28;19921;-67
2021/11/30 00:29:42;;;;;;;7.05;5.07;;;5.10;99.90;;;;;;5051479;28;20099;-67
2021/11/30 00:32:09;;;;;;;8.18;5.43;;;5.20;99.90;;;;;;5052481;28;20053;-67
2021/11/30 00:34:36;;;;;;;9.43;5.75;;;5.20;99.90;;;;;;5050327;28;20523;-66
2021/11/30 00:37:04;;;;;;;8.13;5.88;;;5.20;99.90;;;;;;5034527;28;20059;-67
2021/11/30 00:39:31;;;;;;;7.38;5.28;;;5.30;99.90;;;;;;5052137;28;20106;-67
2021/11/30 00:42:00;;;;;;;7.32;4.95;;;5.30;99.90;;;;;;5051869;28;20076;-67
2021/11/30 00:44:29;;;;;;;7.10;4.82;;;5.30;99.90;;;;;;5052098;28;20503;-67
2021/11/30 00:46:57;;;;;;;9.90;6.60;;;5.40;99.90;;;;;;5033583;28;20488;-67
2021/11/30 00:49:25;;;;;;;9.18;5.53;;;5.40;99.90;;;;;;5049984;28;20608;-66
2021/11/30 00:51:53;;;;;;;6.30;4.95;;;5.50;99.90;;;;;;5050008;28;20048;-67
2021/11/30 00:54:21;;;;;;;6.78;5.25;;;5.50;99.90;;;;;;5051655;28;20041;-67
2021/11/30 00:56:48;;;;;;;9.10;5.53;;;5.60;99.90;;;;;;5051272;28;20104;-67
2021/11/30 00:59:15;;;;;;;8.15;4.70;;;5.60;99.90;;;;;;5051223;28;20080;-67
2021/11/30 01:01:44;;;;;;;7.10;5.25;;;5.70;99.90;;;;;;5049406;28;20095;-67
2021/11/30 01:04:12;;;;;;;8.00;5.22;;;5.70;99.90;;;;;;5050967;28;20052;-67
2021/11/30 01:06:39;;;;;;;8.52;4.70;;;5.80;99.90;;;;;;5050208;28;20045;-67
2021/11/30 01:09:07;;;;;;;8.02;4.75;;;5.80;99.90;;;;;;5050021;28;20069;-67
2021/11/30 01:11:34;;;;;;;6.55;4.63;;;5.90;99.90;;;;;;5051657;28;20079;-67
2021/11/30 01:14:01;;;;;;;6.47;4.78;;;5.90;99.90;;;;;;5017460;28;20132;-67
2021/11/30 01:16:28;;;;;;;6.75;4.60;;;5.90;99.90;;;;;;5050378;28;20049;-67
2021/11/30 01:18:55;;;;;;;6.45;4.75;;;6.00;99.90;;;;;;5048936;28;20086;-67
2021/11/30 01:21:22;;;;;;;8.40;6.05;;;6.00;99.90;;;;;;5045170;28;20477;-67
2021/11/30 01:23:49;;;;;;;8.50;5.03;;;6.00;99.90;;;;;;5033495;28;20060;-68
2021/11/30 01:26:16;;;;;;;9.55;6.60;;;6.10;99.90;;;;;;5050980;28;20104;-67
2021/11/30 01:28:43;;;;;;;9.73;5.30;;;6.10;99.90;;;;;;5051282;28;20057;-67
2021/11/30 01:31:10;;;;;;;9.90;6.07;;;6.20;99.90;;;;;;5030486;28;20460;-67
2021/11/30 01:33:37;;;;;;;8.07;5.82;;;6.20;99.90;;;;;;5022910;28;20063;-68
2021/11/30 01:36:04;;;;;;;8.30;6.00;;;6.30;99.90;;;;;;5031739;28;20065;-68
2021/11/30 01:38:32;;;;;;;7.78;6.18;;;6.30;99.90;;;;;;5050969;28;20060;-66
2021/11/30 01:41:01;;;;;;;7.80;5.28;;;6.40;99.90;;;;;;5043909;28;20512;-66
2021/11/30 01:43:38;;;;;;;8.23;5.90;;;6.40;99.90;;;;;;5050409;28;20049;-67
2021/11/30 01:46:12;;;;;;;8.75;6.18;;;6.40;99.90;;;;;;5043164;28;20037;-67
2021/11/30 01:51:26;;;;;;;8.90;5.82;;;6.50;99.90;;;;;;5050412;28;20048;-67
2021/11/30 01:53:53;;;;;;;9.00;6.32;;;6.50;99.90;;;;;;5052678;28;20049;-67
2021/11/30 01:56:21;;;;;;;8.50;6.55;;;6.50;99.90;;;;;;5053942;28;20048;-67
2021/11/30 01:58:48;;;;;;;9.77;7.25;;;6.60;99.90;;;;;;5052062;28;20097;-67
2021/11/30 02:01:15;;;;;;;8.82;6.68;;;6.60;99.90;;;;;;5048245;28;20052;-66
2021/11/30 02:03:43;;;;;;;10.00;7.13;;;6.60;99.90;;;;;;5048954;28;20041;-67
2021/11/30 02:06:10;;;;;;;11.23;8.45;;;6.60;99.90;;;;;;5049031;28;20056;-67
2021/11/30 02:08:37;;;;;;;9.98;7.35;;;6.60;99.90;;;;;;5048661;28;20045;-67
2021/11/30 02:11:04;;;;;;;11.50;7.95;;;6.70;99.90;;;;;;5048245;28;20389;-67
2021/11/30 02:13:31;;;;;;;9.40;7.55;;;6.70;99.90;;;;;;5048092;28;20167;-67
2021/11/30 02:16:00;;;;;;;10.95;7.93;;;6.70;99.90;;;;;;5048210;28;20041;-67
2021/11/30 02:18:28;;;;;;;11.52;8.05;;;6.70;99.90;;;;;;5048141;28;20049;-67
2021/11/30 02:20:57;;;;;;;12.85;8.73;;;6.70;99.90;;;;;;5028886;28;20056;-68
2021/11/30 02:23:48;;;;;;;11.15;8.48;;;6.70;99.90;;;;;;5014484;28;20046;-67
2021/11/30 02:26:16;;;;;;;12.52;9.52;;;6.70;99.90;;;;;;5032313;28;20068;-68
2021/11/30 02:28:45;;;;;;;11.63;8.85;;;6.70;99.90;;;;;;5043553;28;20468;-67
2021/11/30 02:31:15;;;;;;;12.48;9.02;;;6.80;99.90;;;;;;5048526;28;20511;-67
2021/11/30 02:33:42;;;;;;;14.32;9.55;;;6.70;99.90;;;;;;5029861;28;20045;-67
2021/11/30 02:36:52;;;;;;;14.45;10.30;;;6.70;99.90;;;;;;5050558;28;20143;-68
2021/11/30 02:39:22;;;;;;;;;;;6.70;99.90;;;;;;5049865;28;20041;-67
2021/11/30 02:41:51;;;;;;;15.23;10.82;;;6.70;99.90;;;;;;5076314;28;19921;-67
2021/11/30 02:44:20;;;;;;;15.33;9.20;;;6.80;99.90;;;;;;5023244;28;20488;-67
2021/11/30 02:47:09;;;;;;;14.00;9.60;;;6.80;99.90;;;;;;5047846;28;20049;-67
2021/11/30 02:49:38;;;;;;;15.35;10.57;;;6.80;99.90;;;;;;5048474;28;20041;-67
2021/11/30 02:52:10;;;;;;;15.98;11.70;;;6.80;99.90;;;;;;5048850;28;20081;-69
2021/11/30 02:54:41;;;;;;;15.65;11.18;;;6.90;99.90;;;;;;5032104;28;20094;-67
2021/11/30 02:57:09;;;;;;;15.25;10.75;;;6.90;99.90;;;;;;5046690;28;20041;-68
2021/11/30 02:59:42;;;;;;;14.90;10.40;;;6.90;99.90;;;;;;5028099;28;20046;-67
2021/11/30 03:02:16;;;;;;;15.20;9.90;;;7.00;99.90;;;;;;5051388;28;20064;-67
2021/11/30 03:04:45;;;;;;;12.15;9.32;;;7.00;99.90;;;;;;5023830;28;20050;-68
2021/11/30 03:07:15;;;;;;;13.27;9.68;;;7.00;99.90;;;;;;5049839;28;20067;-68
2021/11/30 03:09:42;;;;;;;13.07;10.38;;;7.00;99.90;;;;;;5048340;28;20053;-68
2021/11/30 03:12:09;;;;;;;12.43;9.00;;;7.10;99.90;;;;;;5048141;28;20045;-67
2021/11/30 03:14:36;;;;;;;13.05;10.00;;;7.00;99.90;;;;;;5047752;28;20492;-67
2021/11/30 03:17:04;;;;;;;12.93;10.20;;;7.10;99.90;;;;;;5048979;28;20049;-67
2021/11/30 03:19:31;;;;;;;14.20;10.05;;;7.10;99.90;;;;;;5048247;28;20049;-67
2021/11/30 03:21:58;;;;;;;15.90;9.75;;;7.10;99.90;;;;;;5048279;28;20045;-67
2021/11/30 03:24:25;;;;;;;12.98;9.55;;;7.10;99.90;;;;;;5048881;28;20310;-67
2021/11/30 03:26:52;;;;;;;13.18;10.10;;;7.10;99.90;;;;;;5051861;28;20041;-67
2021/11/30 03:29:21;;;;;;;13.75;9.45;;;7.20;99.90;;;;;;5042965;28;20045;-67
2021/11/30 03:31:59;;;;;;;11.85;9.60;;;7.20;99.90;;;;;;5031966;28;20473;-67
2021/11/30 03:34:26;;;;;;;13.35;9.65;;;7.20;99.90;;;;;;5050043;28;20103;-67
2021/11/30 03:36:53;;;;;;;12.30;10.13;;;7.20;99.90;;;;;;5040843;28;20045;-67
2021/11/30 03:39:25;;;;;;;12.90;8.43;;;7.20;99.90;;;;;;5002480;28;20053;-67
2021/11/30 03:41:53;;;;;;;13.93;9.73;;;7.30;99.90;;;;;;5052036;28;20053;-67
2021/11/30 03:44:20;;;;;;;12.50;8.15;;;7.30;99.90;;;;;;5050851;28;20069;-67
2021/11/30 03:46:47;;;;;;;14.05;9.57;;;7.30;99.90;;;;;;5050875;28;20493;-67
2021/11/30 03:49:14;;;;;;;13.75;9.10;;;7.30;99.90;;;;;;5053137;28;20059;-68
2021/11/30 03:51:41;;;;;;;12.30;9.18;;;7.40;99.90;;;;;;5051427;28;20045;-68
2021/11/30 03:54:08;;;;;;;11.48;7.78;;;7.40;99.90;;;;;;5052816;28;20052;-68
2021/11/30 03:56:36;;;;;;;10.40;7.70;;;7.50;99.90;;;;;;5035077;28;20051;-68
2021/11/30 03:59:06;;;;;;;12.00;8.73;;;7.50;99.90;;;;;;5051046;28;20143;-67
2021/11/30 04:01:33;;;;;;;13.90;9.57;;;7.50;99.90;;;;;;5051384;28;20037;-67
2021/11/30 04:04:01;;;;;;;11.95;8.32;;;7.50;99.90;;;;;;5050904;28;20493;-67
2021/11/30 04:06:28;;;;;;;11.50;8.50;;;7.50;99.90;;;;;;5051008;28;20048;-68
2021/11/30 04:08:55;;;;;;;14.20;8.98;;;7.50;99.90;;;;;;5051155;28;20049;-67
2021/11/30 04:11:22;;;;;;;12.35;8.80;;;7.50;99.90;;;;;;5052256;28;20044;-68
2021/11/30 04:13:49;;;;;;;12.98;8.32;;;7.50;99.90;;;;;;5052534;28;20083;-67
2021/11/30 04:16:16;;;;;;;11.85;8.30;;;7.60;99.90;;;;;;5051598;28;20129;-67
2021/11/30 04:18:43;;;;;;;15.70;8.68;;;7.60;99.90;;;;;;5050232;28;20087;-68
2021/11/30 04:21:10;;;;;;;11.88;9.02;;;7.60;99.90;;;;;;5050920;28;20057;-68
2021/11/30 04:23:37;;;;;;;11.52;8.98;;;7.60;99.90;;;;;;5018336;28;20049;-68
2021/11/30 04:26:04;;;;;;;13.25;8.85;;;7.60;99.90;;;;;;5050770;28;20053;-68
2021/11/30 04:28:32;;;;;;;10.98;8.48;;;7.60;99.90;;;;;;5053579;28;20420;-67
2021/11/30 04:30:59;;;;;;;11.65;8.48;;;7.60;99.90;;;;;;5052067;28;20041;-67
2021/11/30 04:33:26;;;;;;;13.77;8.27;;;7.60;99.90;;;;;;5050462;28;20045;-68
2021/11/30 04:35:53;;;;;;;11.95;7.88;;;7.60;99.90;;;;;;5051419;28;20037;-67
2021/11/30 04:38:20;;;;;;;12.27;8.20;;;7.60;99.90;;;;;;5049522;28;20447;-67
2021/11/30 04:40:47;;;;;;;13.93;7.65;;;7.60;99.90;;;;;;5051801;28;20045;-67
2021/11/30 04:43:14;;;;;;;10.10;6.72;;;7.70;99.90;;;;;;5051863;28;20089;-67
2021/11/30 04:45:59;;;;;;;13.70;7.60;;;7.70;99.90;;;;;;5049349;28;20057;-67
2021/11/30 04:48:26;;;;;;;9.45;7.28;;;7.70;99.90;;;;;;5052060;28;20454;-67
2021/11/30 04:50:56;;;;;;;11.75;6.90;;;7.70;99.90;;;;;;5033008;28;20049;-67
2021/11/30 04:53:25;;;;;;;8.20;6.47;;;7.70;99.90;;;;;;5050916;28;20052;-68
2021/11/30 04:55:52;;;;;;;;;;;7.70;99.90;;;;;;5050590;28;20669;-68
2021/11/30 04:58:19;;;;;;;9.60;6.28;;;7.70;99.90;;;;;;5051202;28;19921;-67
2021/11/30 05:00:47;;;;;;;8.88;6.72;;;7.70;99.90;;;;;;5049678;28;20116;-67
2021/11/30 05:03:15;;;;;;;7.15;5.53;;;7.70;99.90;;;;;;5033168;28;20045;-67
2021/11/30 05:05:43;;;;;;;9.48;5.65;;;7.70;99.90;;;;;;5018424;28;20049;-67
2021/11/30 05:08:12;;;;;;;9.52;6.28;;;7.70;99.90;;;;;;5050176;28;20422;-67
2021/11/30 05:10:39;;;;;;;9.05;5.53;;;7.70;99.90;;;;;;5049324;28;20091;-67
2021/11/30 05:13:06;;;;;;;7.65;5.35;;;7.70;99.90;;;;;;5049076;28;20053;-67
2021/11/30 05:15:33;;;;;;;6.50;4.85;;;7.60;99.90;;;;;;5033913;28;20044;-68
2021/11/30 05:18:00;;;;;;;8.73;5.13;;;7.60;99.90;;;;;;5051062;28;20049;-68
2021/11/30 05:20:27;;;;;;;9.45;6.22;;;7.60;99.90;;;;;;5047461;28;20072;-67
2021/11/30 05:22:54;;;;;;;12.35;5.95;;;7.60;99.90;;;;;;5028164;28;20057;-67
2021/11/30 05:25:22;;;;;;;7.07;5.28;;;7.60;99.90;;;;;;5040263;28;20052;-67
2021/11/30 05:27:49;;;;;;;7.10;4.57;;;7.70;99.90;;;;;;5049671;28;20064;-67
2021/11/30 05:30:19;;;;;;;6.30;4.90;;;7.70;99.90;;;;;;5050446;28;20045;-67
2021/11/30 05:32:46;;;;;;;8.32;4.90;;;7.70;99.90;;;;;;5044584;28;20045;-67
2021/11/30 05:35:13;;;;;;;6.93;5.10;;;7.70;99.90;;;;;;5045554;28;20051;-67
2021/11/30 05:37:40;;;;;;;5.85;4.90;;;7.60;99.90;;;;;;5049645;28;20049;-67
2021/11/30 05:40:07;;;;;;;7.72;5.03;;;7.60;99.90;;;;;;5050393;28;20041;-67
2021/11/30 05:42:34;;;;;;;5.57;4.70;;;7.60;99.90;;;;;;5050250;28;20135;-67
2021/11/30 05:45:01;;;;;;;7.43;5.70;;;7.70;99.90;;;;;;5049398;28;20056;-67
2021/11/30 05:47:28;;;;;;;7.28;4.63;;;7.70;99.90;;;;;;5049353;28;20056;-67
2021/11/30 05:49:55;;;;;;;5.80;4.72;;;7.70;99.90;;;;;;5049153;28;20061;-67
2021/11/30 05:52:22;;;;;;;8.10;4.63;;;7.60;99.90;;;;;;5048812;28;20048;-67
2021/11/30 05:54:50;;;;;;;9.07;5.43;;;7.60;99.90;;;;;;5048892;28;20053;-67
2021/11/30 05:57:18;;;;;;;5.85;4.43;;;7.60;99.90;;;;;;5049258;28;20045;-67
2021/11/30 05:59:46;;;;;;;5.05;4.13;;;7.60;99.90;;;;;;5049084;28;20045;-67
2021/11/30 06:02:13;;;;;;;6.22;5.15;;;7.60;99.90;;;;;;5047669;28;20153;-67
2021/11/30 06:04:40;;;;;;;7.60;4.53;;;7.60;99.90;;;;;;5016370;28;20049;-67
2021/11/30 06:07:07;;;;;;;7.88;5.55;;;7.60;99.90;;;;;;5049702;28;20128;-67
2021/11/30 06:09:34;;;;;;;6.88;4.40;;;7.70;99.90;;;;;;5032798;28;20045;-67
2021/11/30 06:12:02;;;;;;;5.75;4.78;;;7.70;99.90;;;;;;5049755;28;20045;-67
2021/11/30 06:14:29;;;;;;;5.63;4.20;;;7.80;99.90;;;;;;5048272;28;20099;-67
2021/11/30 06:16:56;;;;;;;6.65;5.28;;;7.80;99.90;;;;;;5050121;28;20388;-67
2021/11/30 06:19:24;;;;;;;6.57;4.47;;;7.80;99.90;;;;;;5048787;28;20110;-67
2021/11/30 06:21:51;;;;;;;5.35;4.38;;;7.90;99.90;;;;;;5049930;28;20052;-67
2021/11/30 06:24:18;;;;;;;8.80;4.22;;;7.90;99.90;;;;;;5049795;28;20071;-67
2021/11/30 06:26:48;;;;;;;6.50;4.43;;;7.90;99.90;;;;;;5049826;28;20048;-67
2021/11/30 06:29:15;;;;;;;6.53;4.60;;;7.90;99.90;;;;;;5048743;28;20444;-67
2021/11/30 06:31:43;;;;;;;4.63;3.97;;;8.00;99.90;;;;;;5049850;28;20048;-67
2021/11/30 06:34:10;;;;;;;5.13;4.20;;;8.10;99.90;;;;;;5048452;28;20472;-67
2021/11/30 06:36:37;;;;;;;7.38;5.25;;;8.00;99.90;;;;;;5049158;28;20043;-67
2021/11/30 06:39:05;;;;;;;4.57;4.10;;;8.10;99.90;;;;;;5049481;28;20099;-67
2021/11/30 06:41:32;;;;;;;4.55;4.05;;;8.10;99.90;;;;;;5027567;28;20052;-67
2021/11/30 06:43:59;;;;;;;4.95;4.03;;;8.10;99.90;;;;;;5049770;28;20499;-66
2021/11/30 06:46:26;;;;;;;6.55;4.47;;;8.10;99.90;;;;;;5049113;28;20093;-65
2021/11/30 06:48:53;;;;;;;98.43;72.25;;;8.10;99.90;;;;;;5049185;28;20116;-66
2021/11/30 06:51:21;;;;;;;15.25;11.75;;;8.10;99.90;;;;;;5048495;28;20052;-67
2021/11/30 06:53:48;;;;;;;7.95;6.00;;;8.20;99.90;;;;;;5045878;28;20523;-71
2021/11/30 06:56:15;;;;;;;5.70;4.22;;;8.20;99.90;;;;;;5029651;28;20063;-69
2021/11/30 06:58:42;;;;;;;5.78;4.25;;;8.20;99.90;;;;;;5047995;28;20052;-65
2021/11/30 07:01:10;;;;;;;5.63;3.65;;;8.20;99.90;;;;;;5048448;28;20049;-65
2021/11/30 07:03:37;;;;;;;4.78;4.18;;;8.30;99.90;;;;;;5051830;28;20041;-68
2021/11/30 07:08:57;;;;;;;5.00;4.38;;;8.30;99.90;;;;;;5043966;28;20051;-67
2021/11/30 07:11:53;;;;;;;88.88;66.72;;;8.40;99.90;;;;;;5016246;28;20065;-67
2021/11/30 07:14:20;;;;;;;23.27;17.38;;;8.40;99.90;;;;;;5048443;28;20127;-66
2021/11/30 07:16:49;;;;;;;9.77;5.00;;;8.40;99.90;;;;;;5028065;28;20061;-65
2021/11/30 07:19:16;;;;;;;7.97;4.00;;;8.40;99.90;;;;;;5050888;28;20049;-65
2021/11/30 07:21:44;;;;;;;5.00;3.80;;;8.40;99.90;;;;;;5050633;28;20312;-68
2021/11/30 07:24:11;;;;;;;10.60;5.15;;;8.40;99.90;;;;;;5050734;28;20052;-65
2021/11/30 07:26:38;;;;;;;4.70;3.85;;;8.40;99.90;;;;;;5047496;28;20057;-68
2021/11/30 07:29:25;;;;;;;5.53;4.32;;;8.40;99.90;;;;;;5050513;28;20040;-65
2021/11/30 07:31:53;;;;;;;5.25;3.95;;;8.40;99.90;;;;;;5049976;28;20041;-66
2021/11/30 07:34:20;;;;;;;6.32;3.90;;;8.50;99.90;;;;;;5050153;28;20557;-66
2021/11/30 07:36:47;;;;;;;5.75;4.00;;;8.50;99.90;;;;;;5031206;28;20058;-65
2021/11/30 07:39:15;;;;;;;4.80;4.28;;;8.50;99.90;;;;;;5045436;28;20051;-65
2021/11/30 07:41:42;;;;;;;4.75;4.15;;;8.60;99.90;;;;;;5036967;28;20057;-66
2021/11/30 07:44:09;;;;;;;5.28;4.40;;;8.50;99.90;;;;;;5050094;28;20098;-65
2021/11/30 07:46:37;;;;;;;5.65;4.60;;;8.60;99.90;;;;;;5050887;28;20061;-65
2021/11/30 07:49:05;;;;;;;7.05;4.35;;;8.50;99.90;;;;;;5050179;28;20500;-64
2021/11/30 07:51:32;;;;;;;6.68;4.50;;;8.50;99.90;;;;;;5050269;28;20057;-64
2021/11/30 07:53:59;;;;;;;6.05;4.10;;;8.60;99.90;;;;;;5049525;28;20068;-64
2021/11/30 07:56:26;;;;;;;5.57;4.45;;;8.60;99.90;;;;;;5048997;28;20582;-65
2021/11/30 07:58:53;;;;;;;6.13;4.63;;;8.60;99.90;;;;;;5049568;28;20136;-64
2021/11/30 08:01:23;;;;;;;6.45;4.53;;;8.60;99.90;;;;;;5049648;28;20106;-64
2021/11/30 08:03:51;;;;;;;4.38;3.97;;;8.70;99.90;;;;;;5048864;28;20037;-65
2021/11/30 08:06:17;;;;;;;6.50;4.78;;;8.70;99.90;;;;;;5048890;28;20059;-66
2021/11/30 08:08:47;;;;;;;5.35;4.55;;;8.70;99.90;;;;;;5045967;28;20152;-65
2021/11/30 08:11:14;;;;;;;5.00;4.35;;;8.80;99.90;;;;;;5044066;28;20049;-65
2021/11/30 08:13:41;;;;;;;7.45;4.22;;;8.80;99.90;;;;;;5049889;28;20447;-60
2021/11/30 08:16:08;;;;;;;5.18;4.10;;;8.90;99.90;;;;;;5042460;28;20049;-64
2021/11/30 08:18:35;;;;;;;5.38;4.80;;;8.90;99.90;;;;;;5047349;28;20096;-63
2021/11/30 08:21:03;;;;;;;4.63;4.13;;;8.90;99.90;;;;;;5046246;28;20052;-63
2021/11/30 08:23:30;;;;;;;6.60;4.75;;;8.80;99.90;;;;;;5048907;28;20057;-63
2021/11/30 08:25:56;;;;;;;5.93;4.03;;;8.80;99.90;;;;;;5031942;28;20056;-63
2021/11/30 08:28:23;;;;;;;17.95;7.03;;;8.80;99.90;;;;;;5049908;28;20396;-63
2021/11/30 08:30:50;;;;;;;5.90;4.72;;;8.80;99.90;;;;;;5048131;28;20700;-62
2021/11/30 08:33:18;;;;;;;4.40;3.80;;;8.70;99.90;;;;;;5048023;28;20132;-63
2021/11/30 08:35:46;;;;;;;6.00;3.90;;;8.70;99.90;;;;;;5048522;28;20053;-62
2021/11/30 08:38:13;;;;;;;4.85;4.15;;;8.70;99.90;;;;;;5047500;28;20057;-61
2021/11/30 08:40:40;;;;;;;5.70;4.53;;;8.70;99.90;;;;;;5048379;28;20055;-62
2021/11/30 08:43:07;;;;;;;29.00;23.40;;;8.80;99.90;;;;;;5049369;28;20045;-61
2021/11/30 08:45:34;;;;;;;55.45;37.72;;;8.80;99.90;;;;;;5048181;28;20106;-61
2021/11/30 08:48:01;;;;;;;8.85;7.10;;;8.90;99.90;;;;;;5049076;28;20136;-61
2021/11/30 08:50:29;;;;;;;5.50;4.40;;;9.00;99.90;;;;;;5050966;28;20040;-62
2021/11/30 08:52:56;;;;;;;4.63;4.00;;;9.00;99.90;;;;;;5050708;28;20059;-63
2021/11/30 08:55:23;;;;;;;6.63;4.07;;;9.10;99.90;;;;;;5049470;28;20051;-63
2021/11/30 08:57:50;;;;;;;8.05;6.40;;;9.10;99.90;;;;;;5051373;28;20452;-62
2021/11/30 09:00:26;;;;;;;10.27;6.15;;;9.20;99.90;;;;;;5049904;28;20044;-62
2021/11/30 09:02:53;;;;;;;8.77;6.10;;;9.20;99.90;;;;;;5051884;28;20064;-63
2021/11/30 09:05:22;;;;;;;6.45;5.25;;;9.30;99.90;;;;;;5045469;28;20041;-63
2021/11/30 09:07:50;;;;;;;5.68;4.72;;;9.30;99.90;;;;;;5050090;28;20052;-68
2021/11/30 09:10:19;;;;;;;7.03;4.15;;;9.40;99.90;;;;;;5049507;28;20098;-62
2021/11/30 09:12:46;;;;;;;4.47;4.07;;;9.40;99.90;;;;;;5049976;28;20041;-63
2021/11/30 09:15:13;;;;;;;5.03;3.70;;;9.40;99.90;;;;;;5034050;28;20424;-63
2021/11/30 09:17:52;;;;;;;4.72;3.63;;;9.50;99.90;;;;;;5051132;28;20488;-63
2021/11/30 09:20:19;;;;;;;5.93;4.57;;;9.50;99.90;;;;;;5038063;28;20049;-63
2021/11/30 09:22:50;;;;;;;87.82;59.38;;;9.60;99.90;;;;;;5047879;28;20093;-67
2021/11/30 09:25:17;;;;;;;21.73;17.38;;;9.60;99.90;;;;;;5017822;28;20102;-66
2021/11/30 09:27:44;;;;;;;5.47;4.60;;;9.80;99.90;;;;;;5049622;28;20067;-66
2021/11/30 09:30:12;;;;;;;5.35;3.95;;;9.80;99.90;;;;;;5049563;28;20469;-66
2021/11/30 09:32:40;;;;;;;8.40;3.50;;;9.90;99.90;;;;;;5017171;28;20063;-66
2021/11/30 09:35:10;;;;;;;4.07;2.92;;;9.90;99.90;;;;;;5049633;28;20412;-66
2021/11/30 09:37:38;;;;;;;6.07;3.42;;;9.90;99.90;;;;;;5033432;28;20081;-66
2021/11/30 09:40:07;;;;;;;5.80;3.92;;;9.90;99.90;;;;;;5056064;28;20052;-64
2021/11/30 09:42:35;;;;;;;5.03;3.72;;;10.00;99.90;;;;;;5073937;28;20088;-64
2021/11/30 09:45:04;;;;;;;4.95;3.63;;;10.00;99.90;;;;;;5070955;28;20076;-65
2021/11/30 09:47:33;;;;;;;7.25;3.92;;;10.10;99.90;;;;;;5042923;28;20412;-66
2021/11/30 09:50:00;;;;;;;5.57;4.13;;;10.10;99.90;;;;;;5044568;28;20461;-66
2021/11/30 09:52:30;;;;;;;5.05;3.65;;;10.10;99.90;;;;;;5047279;28;20081;-66
2021/11/30 09:54:57;;;;;;;7.07;3.97;;;10.10;99.90;;;;;;5025248;28;20075;-66
2021/11/30 09:57:29;;;;;;;5.80;4.18;;;10.20;99.90;;;;;;5029108;28;20136;-66
2021/11/30 09:59:56;;;;;;;7.30;4.45;;;10.20;99.90;;;;;;5025227;28;20126;-65
2021/11/30 10:02:26;;;;;;;6.95;4.40;;;10.30;99.90;;;;;;5049732;28;20479;-65
2021/11/30 10:04:53;;;;;;;4.53;4.03;;;10.40;99.90;;;;;;5033365;28;20086;-65
2021/11/30 10:07:50;;;;;;;5.65;4.47;;;10.50;99.90;;;;;;5050953;28;20076;-65
2021/11/30 10:10:21;;;;;;;5.30;4.18;;;10.50;99.90;;;;;;5048954;28;20052;-65
2021/11/30 10:13:00;;;;;;;8.05;4.55;;;10.60;99.90;;;;;;5050651;28;20059;-65
2021/11/30 10:15:28;;;;;;;7.53;4.40;;;10.60;99.90;;;;;;5049435;28;20225;-64
2021/11/30 10:18:33;;;;;;;5.80;4.50;;;10.70;99.90;;;;;;5048899;28;20302;-65
2021/11/30 10:21:10;;;;;;;7.40;4.80;;;10.80;99.90;;;;;;5012798;28;20069;-65
2021/11/30 10:23:49;;;;;;;5.78;4.35;;;10.90;99.90;;;;;;5030409;28;20427;-65
2021/11/30 10:26:20;;;;;;;5.22;4.10;;;10.80;99.90;;;;;;5029671;28;20052;-64
2021/11/30 10:29:01;;;;;;;6.13;4.57;;;10.90;99.90;;;;;;5013064;28;20054;-65
2021/11/30 10:31:38;;;;;;;6.82;4.20;;;10.80;99.90;;;;;;5037077;28;20045;-64
2021/11/30 10:34:15;;;;;;;7.18;4.60;;;10.90;99.90;;;;;;5048993;28;20353;-64
2021/11/30 10:36:47;;;;;;;6.15;3.78;;;11.00;99.90;;;;;;5048928;28;20052;-65
2021/11/30 10:39:32;;;;;;;6.78;3.53;;;11.10;99.90;;;;;;5032775;28;20492;-64
2021/11/30 10:42:13;;;;;;;5.68;4.03;;;11.10;99.90;;;;;;5032851;28;20063;-66
2021/11/30 10:44:39;;;;;;;7.15;4.05;;;11.20;99.90;;;;;;5050065;28;20077;-66
2021/11/30 10:47:12;;;;;;;4.57;3.75;;;11.20;99.90;;;;;;5050127;28;20193;-66
2021/11/30 10:49:53;;;;;;;5.63;3.35;;;11.30;99.90;;;;;;5017160;28;20100;-65
2021/11/30 10:52:25;;;;;;;5.70;3.40;;;11.30;99.90;;;;;;5048800;28;20061;-65
2021/11/30 10:55:02;;;;;;;7.10;3.20;;;11.40;99.90;;;;;;5048751;28;20132;-65
2021/11/30 10:57:32;;;;;;;6.50;3.80;;;11.40;99.90;;;;;;5048838;28;20496;-65
2021/11/30 11:00:30;;;;;;;5.07;3.58;;;11.50;99.90;;;;;;5048600;28;20494;-65
2021/11/30 11:03:04;;;;;;;4.95;3.55;;;11.50;99.90;;;;;;5048347;28;20049;-66
2021/11/30 11:05:35;;;;;;;7.03;3.03;;;11.60;99.90;;;;;;5048714;28;20147;-63
2021/11/30 11:08:06;;;;;;;6.72;3.67;;;11.60;99.90;;;;;;5039680;28;20497;-67
2021/11/30 11:10:34;;;;;;;5.53;3.78;;;11.60;99.90;;;;;;5048838;28;20059;-67
2021/11/30 11:13:23;;;;;;;4.55;3.30;;;11.60;99.90;;;;;;5048518;28;20053;-72
2021/11/30 11:15:52;;;;;;;3.80;3.40;;;11.60;99.90;;;;;;5048912;28;20052;-64
2021/11/30 11:18:28;;;;;;;7.82;4.18;;;11.60;99.90;;;;;;5014637;28;20060;-64
2021/11/30 11:21:29;;;;;;;4.32;3.10;;;11.60;99.90;;;;;;5049015;28;20090;-65
2021/11/30 11:24:16;;;;;;;5.70;3.85;;;11.60;99.90;;;;;;5031655;28;20401;-66
2021/11/30 11:26:50;;;;;;;5.38;3.17;;;11.50;99.90;;;;;;5032014;28;20049;-66
2021/11/30 11:29:19;;;;;;;4.95;3.35;;;11.50;99.90;;;;;;5016540;28;20068;-66
2021/11/30 11:31:57;;;;;;;5.13;3.78;;;11.50;99.90;;;;;;5048577;28;20045;-65
2021/11/30 11:34:29;;;;;;;6.82;3.35;;;11.50;99.90;;;;;;5048586;28;20429;-65
2021/11/30 11:36:57;;;;;;;6.80;3.20;;;11.50;99.90;;;;;;5048191;28;20049;-64
2021/11/30 11:39:24;;;;;;;5.78;3.60;;;11.60;99.90;;;;;;5053464;28;20091;-65
2021/11/30 11:42:02;;;;;;;5.28;3.83;;;11.60;99.90;;;;;;5047606;28;20522;-65
2021/11/30 11:44:29;;;;;;;9.48;3.28;;;11.60;99.90;;;;;;5031187;28;20441;-65
2021/11/30 11:47:09;;;;;;;4.40;3.05;;;11.60;99.90;;;;;;5028564;28;20128;-65
2021/11/30 11:49:39;;;;;;;3.78;3.22;;;11.70;99.90;;;;;;5044869;28;20067;-65
2021/11/30 11:52:27;;;;;;;5.05;3.35;;;11.60;99.90;;;;;;5051155;28;20053;-65
2021/11/30 11:55:00;;;;;;;5.32;3.35;;;11.70;99.90;;;;;;5035971;28;20049;-65
2021/11/30 11:57:27;;;;;;;4.43;3.38;;;11.80;99.90;;;;;;5052722;28;20056;-65
2021/11/30 11:59:53;;;;;;;6.95;3.65;;;11.80;99.90;;;;;;5051552;28;20096;-65
2021/11/30 12:02:24;;;;;;;4.38;3.03;;;11.80;99.90;;;;;;5034855;28;20049;-65
2021/11/30 12:05:04;;;;;;;108.00;76.90;;;11.80;99.90;;;;;;5051938;28;20111;-65
2021/11/30 12:08:01;;;;;;;52.33;36.97;;;11.80;99.90;;;;;;5032667;28;20049;-64
2021/11/30 12:10:29;;;;;;;16.08;10.25;;;11.90;99.90;;;;;;5052189;28;20060;-65
2021/11/30 12:13:22;;;;;;;6.00;4.28;;;11.90;99.90;;;;;;5034029;28;20095;-62
2021/11/30 12:16:04;;;;;;;6.03;4.18;;;11.90;99.90;;;;;;5052833;28;20123;-66
2021/11/30 12:18:46;;;;;;;12.15;10.70;;;12.00;99.90;;;;;;5050284;28;20053;-63
2021/11/30 12:21:25;;;;;;;28.65;21.85;;;11.90;99.90;;;;;;5038865;28;20037;-66
2021/11/30 12:23:59;;;;;;;6.03;4.90;;;12.00;99.80;;;;;;5025285;28;20041;-68
2021/11/30 12:26:28;;;;;;;5.80;3.70;;;12.00;99.90;;;;;;5048707;28;20147;-66
2021/11/30 12:28:55;;;;;;;5.07;3.83;;;12.00;99.90;;;;;;5049633;28;20049;-62
2021/11/30 12:31:36;;;;;;;8.15;4.53;;;12.00;99.90;;;;;;5031580;28;20060;-63
2021/11/30 12:34:07;;;;;;;7.03;4.50;;;11.90;99.90;;;;;;5034159;28;20048;-65
2021/11/30 12:36:39;;;;;;;5.70;3.45;;;12.00;99.90;;;;;;5050706;28;20072;-65
2021/11/30 12:39:11;;;;;;;6.10;3.97;;;12.00;99.90;;;;;;5043259;28;20053;-64
2021/11/30 12:41:38;;;;;;;5.38;4.05;;;12.00;99.90;;;;;;5048789;28;20045;-63
2021/11/30 12:44:14;;;;;;;6.63;4.18;;;12.00;99.90;;;;;;5050798;28;20067;-66
2021/11/30 12:46:46;;;;;;;4.72;3.60;;;12.10;99.90;;;;;;5052042;28;20052;-73
2021/11/30 12:49:25;;;;;;;5.85;3.97;;;12.10;99.90;;;;;;5050800;28;20052;-64
2021/11/30 12:52:15;;;;;;;5.32;4.22;;;12.10;99.80;;;;;;5065347;28;20102;-66
2021/11/30 12:55:15;;;;;;;17.85;14.38;;;12.10;99.90;;;;;;5050705;28;20060;-66
2021/11/30 12:57:43;;;;;;;11.88;7.72;;;12.10;99.90;;;;;;5059915;28;20045;-65
2021/11/30 13:00:26;;;;;;;7.45;5.90;;;12.20;99.90;;;;;;5049683;28;20049;-63
2021/11/30 13:02:54;;;;;;;6.75;5.20;;;12.20;99.90;;;;;;5017369;28;20108;-64
2021/11/30 13:05:24;;;;;;;6.13;5.18;;;12.20;99.90;;;;;;5047451;28;20072;-63
2021/11/30 13:07:51;;;;;;;;;;;12.20;99.70;;;;;;5050156;28;20049;-67
2021/11/30 13:10:29;;;;;;;7.85;5.10;;;12.20;99.20;;;;;;5051969;28;19931;-62
2021/11/30 13:12:58;;;;;;;8.32;4.93;;;12.20;99.90;;;;;;5050492;28;20049;-64
2021/11/30 13:15:25;;;;;;;8.90;5.27;;;12.20;99.50;;;;;;5033800;28;20516;-65